createdAt,value
2019-05-01T00:01:53.014Z,99965.48
2019-05-01T00:04:54.484Z,99968.70
2019-05-01T00:07:27.001Z,99955.30
2019-05-01T00:09:53.664Z,99950.24
2019-05-01T00:12:20.606Z,100018.08
2019-05-01T00:14:47.458Z,99918.67
2019-05-01T00:17:14.244Z,99944.39
2019-05-01T00:19:41.011Z,99945.90
2019-05-01T00:22:07.790Z,99945.41
2019-05-01T00:24:34.554Z,99947.33
2019-05-01T00:27:01.136Z,99945.69
2019-05-01T00:29:28.023Z,99950.50
2019-05-01T00:31:54.893Z,99942.97
2019-05-01T00:34:21.625Z,99946.34
2019-05-01T00:36:48.482Z,99942.00
2019-05-01T00:39:15.448Z,99936.94
2019-05-01T00:41:42.029Z,99941.63
2019-05-01T00:44:08.790Z,99939.61
2019-05-01T00:46:35.485Z,99937.02
2019-05-01T00:49:02.204Z,99933.84
2019-05-01T00:51:28.905Z,99933.72
2019-05-01T00:53:55.669Z,99932.99
2019-05-01T00:56:29.209Z,99930.31
2019-05-01T00:59:15.640Z,99954.95
2019-05-01T01:01:57.300Z,99919.45
2019-05-01T01:04:24.002Z,99918.88
2019-05-01T01:06:50.871Z,99920.34
2019-05-01T01:09:17.739Z,99918.09
2019-05-01T01:11:44.526Z,99919.25
2019-05-01T01:14:11.205Z,99927.59
2019-05-01T01:16:37.996Z,99965.90
2019-05-01T01:19:04.785Z,99922.13
2019-05-01T01:21:31.572Z,99910.33
2019-05-01T01:23:58.324Z,99912.69
2019-05-01T01:26:25.092Z,99913.52
2019-05-01T01:28:51.873Z,99907.33
2019-05-01T01:31:18.640Z,99906.30
2019-05-01T01:33:45.443Z,99901.55
2019-05-01T01:36:12.241Z,99900.77
2019-05-01T01:38:38.991Z,99894.17
2019-05-01T01:41:05.845Z,99892.31
2019-05-01T01:43:46.978Z,99890.41
2019-05-01T01:46:15.577Z,99889.69
2019-05-01T01:48:42.426Z,99887.24
2019-05-01T01:51:09.194Z,99883.33
2019-05-01T01:53:36.104Z,99879.75
2019-05-01T01:56:02.854Z,99877.38
2019-05-01T01:58:29.924Z,99879.78
2019-05-01T02:01:16.668Z,99885.56
2019-05-01T02:03:46.598Z,99882.64
2019-05-01T02:06:13.468Z,99882.53
2019-05-01T02:08:40.234Z,99879.33
2019-05-01T02:11:07.129Z,99881.34
2019-05-01T02:13:33.909Z,99881.71
2019-05-01T02:16:00.655Z,99881.00
2019-05-01T02:18:27.422Z,99878.43
2019-05-01T02:20:54.072Z,99884.06
2019-05-01T02:23:20.855Z,99878.65
2019-05-01T02:25:47.611Z,99882.41
2019-05-01T02:28:34.244Z,99881.73
2019-05-01T02:31:28.407Z,99876.89
2019-05-01T02:33:48.338Z,99869.59
2019-05-01T02:36:36.448Z,99874.89
2019-05-01T02:39:07.508Z,99871.34
2019-05-01T02:41:41.319Z,99864.66
2019-05-01T02:44:30.103Z,99856.05
2019-05-01T02:47:00.286Z,99851.34
2019-05-01T02:49:34.271Z,99855.09
2019-05-01T02:52:03.152Z,99849.08
2019-05-01T02:54:30.805Z,99852.05
2019-05-01T02:57:03.961Z,99853.80
2019-05-01T02:59:32.632Z,99857.13
2019-05-01T03:02:01.407Z,99854.39
2019-05-01T03:04:28.391Z,99851.58
2019-05-01T03:06:55.234Z,99852.05
2019-05-01T03:09:22.537Z,99843.59
2019-05-01T03:11:52.598Z,99851.11
2019-05-01T03:14:22.987Z,99852.28
2019-05-01T03:16:53.027Z,99861.23
2019-05-01T03:19:42.480Z,99854.63
2019-05-01T03:22:30.945Z,99854.75
2019-05-01T03:24:58.143Z,99855.95
2019-05-01T03:27:25.112Z,99844.18
2019-05-01T03:29:51.917Z,99852.75
2019-05-01T03:32:19.904Z,99849.95
2019-05-01T03:34:52.296Z,99850.88
2019-05-01T03:37:15.868Z,99846.28
2019-05-01T03:39:43.056Z,99845.69
2019-05-01T03:42:10.082Z,99846.41
2019-05-01T03:44:36.940Z,99842.51
2019-05-01T03:47:03.696Z,99841.24
2019-05-01T03:49:30.458Z,99832.76
2019-05-01T03:51:57.260Z,99836.05
2019-05-01T03:54:24.239Z,99836.64
2019-05-01T03:56:51.031Z,99834.39
2019-05-01T03:59:18.832Z,99830.39
2019-05-01T04:02:33.900Z,99829.11
2019-05-01T04:04:58.975Z,99835.45
2019-05-01T04:07:26.016Z,99831.81
2019-05-01T04:09:52.998Z,99824.61
2019-05-01T04:12:19.845Z,99828.13
2019-05-01T04:14:47.618Z,99829.91
2019-05-01T04:17:23.826Z,99800.27
2019-05-01T04:19:50.589Z,99831.59
2019-05-01T04:22:17.439Z,99826.88
2019-05-01T04:24:44.208Z,99831.95
2019-05-01T04:27:16.525Z,99835.13
2019-05-01T04:29:53.111Z,99830.86
2019-05-01T04:32:22.639Z,99838.30
2019-05-01T04:35:21.887Z,99830.27
2019-05-01T04:37:48.869Z,99836.72
2019-05-01T04:40:18.731Z,99825.53
2019-05-01T04:42:45.419Z,99829.32
2019-05-01T04:45:12.201Z,99832.82
2019-05-01T04:47:38.954Z,99832.82
2019-05-01T04:50:05.802Z,99832.82
2019-05-01T04:52:32.976Z,99842.45
2019-05-01T04:54:59.856Z,99838.64
2019-05-01T04:57:26.627Z,99837.31
2019-05-01T04:59:53.398Z,99843.84
2019-05-01T05:02:29.252Z,99853.77
2019-05-01T05:04:56.071Z,99854.05
2019-05-01T05:07:23.231Z,99839.78
2019-05-01T05:09:50.608Z,99867.38
2019-05-01T05:12:26.952Z,99840.48
2019-05-01T05:14:58.627Z,99838.89
2019-05-01T05:17:25.802Z,99837.36
2019-05-01T05:19:52.647Z,99839.02
2019-05-01T05:22:19.403Z,99838.39
2019-05-01T05:24:46.486Z,99841.19
2019-05-01T05:27:14.651Z,99832.91
2019-05-01T05:29:43.866Z,99835.05
2019-05-01T05:32:12.835Z,99832.58
2019-05-01T05:34:41.771Z,99836.69
2019-05-01T05:37:16.994Z,99839.73
2019-05-01T05:39:45.730Z,99849.61
2019-05-01T05:42:13.476Z,99836.69
2019-05-01T05:44:40.645Z,99826.02
2019-05-01T05:47:08.352Z,99836.22
2019-05-01T05:49:35.427Z,99835.39
2019-05-01T05:52:14.737Z,99844.02
2019-05-01T05:54:55.234Z,99839.84
2019-05-01T05:57:31.572Z,99839.13
2019-05-01T06:00:07.830Z,99843.10
2019-05-01T06:02:48.954Z,99842.77
2019-05-01T06:05:38.387Z,99838.10
2019-05-01T06:08:09.907Z,99844.27
2019-05-01T06:10:53.539Z,99845.10
2019-05-01T06:13:42.647Z,99843.09
2019-05-01T06:16:17.398Z,99849.36
2019-05-01T06:18:53.536Z,99854.02
2019-05-01T06:21:54.685Z,99839.55
2019-05-01T06:24:26.051Z,99848.87
2019-05-01T06:26:52.809Z,99837.23
2019-05-01T06:29:19.565Z,99845.38
2019-05-01T06:31:46.549Z,99848.53
2019-05-01T06:34:13.306Z,99843.41
2019-05-01T06:36:44.123Z,99846.25
2019-05-01T06:39:11.966Z,99844.91
2019-05-01T06:41:42.936Z,99845.31
2019-05-01T06:44:18.370Z,99842.69
2019-05-01T06:46:51.375Z,99845.61
2019-05-01T06:49:31.538Z,99844.55
2019-05-01T06:51:59.736Z,99839.19
2019-05-01T06:54:52.118Z,99841.64
2019-05-01T06:57:16.505Z,99842.00
2019-05-01T06:59:43.453Z,99836.29
2019-05-01T07:02:15.978Z,99847.25
2019-05-01T07:04:44.936Z,99840.19
2019-05-01T07:07:24.684Z,99833.58
2019-05-01T07:09:44.070Z,99830.33
2019-05-01T07:12:16.923Z,99831.54
2019-05-01T07:14:47.161Z,99837.91
2019-05-01T07:17:13.513Z,99838.66
2019-05-01T07:19:59.910Z,99837.03
2019-05-01T07:22:26.674Z,99836.66
2019-05-01T07:24:54.061Z,99836.19
2019-05-01T07:27:23.649Z,99826.52
2019-05-01T07:32:41.194Z,99825.20
2019-05-01T07:35:09.136Z,99826.45
2019-05-01T07:37:38.677Z,99829.70
2019-05-01T07:40:06.391Z,99824.20
2019-05-01T07:42:37.714Z,99826.56
2019-05-01T07:45:38.943Z,99809.70
2019-05-01T07:48:05.611Z,99819.51
2019-05-01T07:50:32.987Z,99818.28
2019-05-01T07:52:59.772Z,99822.39
2019-05-01T07:55:35.943Z,99819.06
2019-05-01T07:58:05.524Z,99816.33
2019-05-01T08:01:22.355Z,99820.58
2019-05-01T08:03:49.117Z,99849.45
2019-05-01T08:06:20.854Z,99815.06
2019-05-01T08:08:44.456Z,99811.00
2019-05-01T08:11:11.228Z,99808.37
2019-05-01T08:13:37.985Z,99817.95
2019-05-01T08:16:07.234Z,99827.48
2019-05-01T08:18:45.499Z,99825.13
2019-05-01T08:21:26.209Z,99822.55
2019-05-01T08:23:53.402Z,99820.17
2019-05-01T08:26:20.074Z,99818.95
2019-05-01T08:29:08.120Z,99811.58
2019-05-01T08:31:50.329Z,99828.50
2019-05-01T08:34:20.769Z,99822.66
2019-05-01T08:36:48.461Z,99815.85
2019-05-01T08:39:15.302Z,99815.98
2019-05-01T08:41:42.092Z,99817.47
2019-05-01T08:44:08.751Z,99823.30
2019-05-01T08:46:50.856Z,99826.27
2019-05-01T08:49:21.627Z,99819.81
2019-05-01T08:51:48.336Z,99821.42
2019-05-01T08:54:15.163Z,99810.25
2019-05-01T08:56:43.674Z,99809.20
2019-05-01T08:59:10.544Z,99813.95
2019-05-01T09:01:37.248Z,99810.09
2019-05-01T09:04:12.552Z,99806.52
2019-05-01T09:06:34.776Z,99809.28
2019-05-01T09:09:03.062Z,99801.03
2019-05-01T09:11:31.738Z,99807.66
2019-05-01T09:14:00.076Z,99800.48
2019-05-01T09:16:28.398Z,99796.23
2019-05-01T09:18:55.486Z,99796.25
2019-05-01T09:21:22.153Z,99800.63
2019-05-01T09:23:51.467Z,99793.01
2019-05-01T09:26:37.380Z,99784.56
2019-05-01T09:29:11.169Z,99799.09
2019-05-01T09:31:36.347Z,99792.41
2019-05-01T09:34:04.556Z,99792.40
2019-05-01T09:36:31.515Z,99794.44
2019-05-01T09:38:58.259Z,99790.59
2019-05-01T09:41:37.448Z,99792.59
2019-05-01T09:43:53.593Z,99781.98
2019-05-01T09:46:20.367Z,99788.92
2019-05-01T09:48:47.360Z,99784.44
2019-05-01T09:51:33.786Z,99790.18
2019-05-01T09:54:09.709Z,99785.41
2019-05-01T09:56:34.507Z,99783.96
2019-05-01T09:59:01.258Z,99782.10
2019-05-01T10:01:31.984Z,99789.65
2019-05-01T10:03:56.712Z,99784.95
2019-05-01T10:06:23.474Z,99789.75
2019-05-01T10:08:50.195Z,99786.52
2019-05-01T10:11:16.953Z,99781.13
2019-05-01T10:13:43.644Z,99782.42
2019-05-01T10:16:10.408Z,99775.80
2019-05-01T10:18:37.089Z,99785.96
2019-05-01T10:21:03.842Z,99767.50
2019-05-01T10:23:30.629Z,99774.08
2019-05-01T10:25:59.211Z,99770.77
2019-05-01T10:28:45.033Z,99767.13
2019-05-01T10:31:24.091Z,99767.85
2019-05-01T10:33:52.480Z,99761.99
2019-05-01T10:36:38.692Z,99767.66
2019-05-01T10:39:07.858Z,99775.70
2019-05-01T10:41:34.523Z,99763.56
2019-05-01T10:44:01.202Z,99750.17
2019-05-01T10:46:27.966Z,99754.64
2019-05-01T10:48:57.187Z,99756.27
2019-05-01T10:51:23.421Z,99743.20
2019-05-01T10:53:50.193Z,99731.77
2019-05-01T10:56:16.957Z,99739.55
2019-05-01T10:58:43.548Z,99743.09
2019-05-01T11:01:19.258Z,99745.47
2019-05-01T11:03:45.920Z,99722.56
2019-05-01T11:06:12.678Z,99734.95
2019-05-01T11:08:39.453Z,99722.73
2019-05-01T11:11:06.208Z,99727.28
2019-05-01T11:13:32.993Z,99720.97
2019-05-01T11:15:59.656Z,99715.23
2019-05-01T11:18:26.412Z,99717.05
2019-05-01T11:20:53.086Z,99712.31
2019-05-01T11:23:19.806Z,99714.70
2019-05-01T11:25:46.610Z,99712.37
2019-05-01T11:28:13.300Z,99706.58
2019-05-01T11:30:39.892Z,99715.03
2019-05-01T11:33:13.003Z,99708.30
2019-05-01T11:36:09.638Z,99701.16
2019-05-01T11:38:50.951Z,99708.68
2019-05-01T11:41:30.655Z,99716.31
2019-05-01T11:43:57.418Z,99703.22
2019-05-01T11:46:24.010Z,99701.42
2019-05-01T11:48:50.686Z,99699.34
2019-05-01T11:51:17.465Z,99711.78
2019-05-01T11:53:44.228Z,99711.34
2019-05-01T11:56:11.018Z,99707.83
2019-05-01T11:58:37.782Z,99705.71
2019-05-01T12:01:05.149Z,99696.61
2019-05-01T12:03:31.867Z,99704.31
2019-05-01T12:05:58.667Z,99699.59
2019-05-01T12:08:25.373Z,99697.00
2019-05-01T12:10:52.059Z,99695.23
2019-05-01T12:13:18.637Z,99687.34
2019-05-01T12:15:48.531Z,99690.08
2019-05-01T12:18:15.295Z,99687.00
2019-05-01T12:20:42.030Z,99674.54
2019-05-01T12:23:08.719Z,99697.53
2019-05-01T12:25:35.399Z,99676.64
2019-05-01T12:28:03.163Z,99678.63
2019-05-01T12:30:29.849Z,99681.94
2019-05-01T12:32:56.408Z,99673.42
2019-05-01T12:35:23.210Z,99675.70
2019-05-01T12:37:50.859Z,99667.05
2019-05-01T12:40:19.253Z,99661.05
2019-05-01T12:42:46.171Z,99653.57
2019-05-01T12:45:13.773Z,99653.47
2019-05-01T12:48:00.220Z,99656.78
2019-05-01T12:50:27.006Z,99654.40
2019-05-01T12:53:15.380Z,99644.83
2019-05-01T12:56:04.427Z,99642.02
2019-05-01T12:58:32.030Z,99633.24
2019-05-01T13:00:58.719Z,99630.78
2019-05-01T13:03:25.382Z,99619.13
2019-05-01T13:05:52.061Z,99632.55
2019-05-01T13:08:18.875Z,99629.41
2019-05-01T13:10:45.552Z,99626.64
2019-05-01T13:13:12.366Z,99615.06
2019-05-01T13:15:39.144Z,99615.06
2019-05-01T13:18:05.925Z,99621.39
2019-05-01T13:20:32.688Z,99613.55
2019-05-01T13:22:59.343Z,99611.40
2019-05-01T13:25:26.134Z,99610.38
2019-05-01T13:27:59.254Z,99625.82
2019-05-01T13:30:35.410Z,99609.09
2019-05-01T13:33:02.178Z,99610.20
2019-05-01T13:35:30.537Z,99601.62
2019-05-01T13:37:57.641Z,99600.77
2019-05-01T13:40:24.359Z,99603.55
2019-05-01T13:42:51.175Z,99596.41
2019-05-01T13:45:18.047Z,99589.81
2019-05-01T13:47:44.822Z,99581.66
2019-05-01T13:50:11.914Z,99580.07
2019-05-01T13:52:38.601Z,99585.04
2019-05-01T13:55:05.604Z,99579.77
2019-05-01T13:57:32.394Z,99572.98
2019-05-01T13:59:59.174Z,99582.43
2019-05-01T14:02:25.946Z,99561.41
2019-05-01T14:04:52.701Z,99565.52
2019-05-01T14:07:19.382Z,99565.77
2019-05-01T14:09:46.038Z,99556.95
2019-05-01T14:12:12.818Z,99553.16
2019-05-01T14:14:39.587Z,99564.02
2019-05-01T14:17:06.473Z,99561.45
2019-05-01T14:19:34.935Z,99555.66
2019-05-01T14:22:30.566Z,99552.11
2019-05-01T14:24:58.422Z,99547.44
2019-05-01T14:27:25.000Z,99547.75
2019-05-01T14:29:51.759Z,99547.19
2019-05-01T14:32:18.537Z,99537.30
2019-05-01T14:34:45.290Z,99543.66
2019-05-01T14:37:12.111Z,99533.34
2019-05-01T14:39:39.803Z,99532.08
2019-05-01T14:42:06.601Z,99530.30
2019-05-01T14:44:37.021Z,99521.16
2019-05-01T14:47:01.834Z,99522.48
2019-05-01T14:49:28.381Z,99524.02
2019-05-01T14:51:55.162Z,99525.88
2019-05-01T14:54:21.718Z,99519.66
2019-05-01T14:56:48.388Z,99515.75
2019-05-01T14:59:15.042Z,99514.48
2019-05-01T15:01:41.838Z,99520.06
2019-05-01T15:04:08.527Z,99526.06
2019-05-01T15:06:35.288Z,99522.56
2019-05-01T15:09:04.289Z,99514.72
2019-05-01T15:11:31.088Z,99512.28
2019-05-01T15:14:16.058Z,99510.05
2019-05-01T15:16:53.471Z,99505.85
2019-05-01T15:19:22.444Z,99506.33
2019-05-01T15:21:49.253Z,99499.84
2019-05-01T15:24:15.969Z,99493.22
2019-05-01T15:26:42.541Z,99499.16
2019-05-01T15:29:09.294Z,99497.52
2019-05-01T15:31:36.051Z,99490.44
2019-05-01T15:34:02.826Z,99485.98
2019-05-01T15:36:29.492Z,99481.66
2019-05-01T15:38:56.854Z,99488.11
2019-05-01T15:41:49.285Z,99483.67
2019-05-01T15:44:17.609Z,99477.05
2019-05-01T15:46:44.607Z,99469.44
2019-05-01T15:49:11.272Z,99481.83
2019-05-01T15:51:37.925Z,99478.75
2019-05-01T15:54:04.702Z,99486.48
2019-05-01T15:56:31.357Z,99475.78
2019-05-01T15:58:58.092Z,99473.81
2019-05-01T16:01:24.646Z,99474.09
2019-05-01T16:03:51.325Z,99457.09
2019-05-01T16:06:17.981Z,99466.12
2019-05-01T16:08:44.674Z,99463.62
2019-05-01T16:11:20.182Z,99466.93
2019-05-01T16:13:46.851Z,99455.11
2019-05-01T16:16:13.411Z,99458.68
2019-05-01T16:18:40.088Z,99467.03
2019-05-01T16:21:06.727Z,99459.45
2019-05-01T16:23:33.520Z,99461.39
2019-05-01T16:26:00.367Z,99453.27
2019-05-01T16:28:27.033Z,99447.09
2019-05-01T16:30:53.614Z,99450.31
2019-05-01T16:33:20.386Z,99448.48
2019-05-01T16:35:47.066Z,99441.50
2019-05-01T16:38:23.202Z,99444.32
2019-05-01T16:41:05.261Z,99439.46
2019-05-01T16:43:32.039Z,99435.95
2019-05-01T16:45:59.718Z,99438.23
2019-05-01T16:48:26.500Z,99432.28
2019-05-01T16:50:53.164Z,99431.51
2019-05-01T16:53:19.979Z,99428.27
2019-05-01T16:55:46.684Z,99429.92
2019-05-01T16:58:15.265Z,99401.83
2019-05-01T17:00:57.462Z,99427.75
2019-05-01T17:03:29.114Z,99429.72
2019-05-01T17:06:10.665Z,99430.20
2019-05-01T17:08:46.752Z,99428.94
2019-05-01T17:11:13.513Z,99420.49
2019-05-01T17:13:40.394Z,99418.75
2019-05-01T17:16:07.153Z,99418.49
2019-05-01T17:18:33.847Z,99424.48
2019-05-01T17:21:00.623Z,99419.48
2019-05-01T17:23:27.183Z,99415.30
2019-05-01T17:25:54.001Z,99415.59
2019-05-01T17:28:20.726Z,99403.92
2019-05-01T17:30:52.694Z,99411.94
2019-05-01T17:33:22.044Z,99402.56
2019-05-01T17:35:48.189Z,99419.75
2019-05-01T17:38:14.963Z,99412.22
2019-05-01T17:40:41.713Z,99409.30
2019-05-01T17:43:13.389Z,99403.81
2019-05-01T17:45:37.055Z,99408.84
2019-05-01T17:48:04.019Z,99411.73
2019-05-01T17:50:30.690Z,99413.91
2019-05-01T17:52:57.382Z,99399.33
2019-05-01T17:55:24.151Z,99404.47
2019-05-01T17:57:50.799Z,99402.95
2019-05-01T18:00:38.684Z,99407.77
2019-05-01T18:03:20.675Z,99403.20
2019-05-01T18:06:13.005Z,99396.34
2019-05-01T18:08:39.651Z,99400.68
2019-05-01T18:11:09.235Z,99399.98
2019-05-01T18:13:35.130Z,99401.50
2019-05-01T18:16:01.996Z,99404.81
2019-05-01T18:18:28.844Z,99403.68
2019-05-01T18:20:55.621Z,99397.53
2019-05-01T18:23:42.763Z,99400.52
2019-05-01T18:26:34.518Z,99396.77
2019-05-01T18:29:07.981Z,99397.38
2019-05-01T18:31:34.745Z,99401.15
2019-05-01T18:34:02.961Z,99405.63
2019-05-01T18:36:35.804Z,99400.24
2019-05-01T18:39:34.032Z,99403.19
2019-05-01T18:42:03.220Z,99403.24
2019-05-01T18:44:29.997Z,99405.14
2019-05-01T18:46:56.801Z,99401.16
2019-05-01T18:49:23.581Z,99400.73
2019-05-01T18:51:50.335Z,99399.64
2019-05-01T18:54:17.119Z,99402.28
2019-05-01T18:56:43.891Z,99404.25
2019-05-01T18:59:10.576Z,99407.50
2019-05-01T19:01:37.608Z,99401.30
2019-05-01T19:04:04.359Z,99407.50
2019-05-01T19:06:41.059Z,99399.66
2019-05-01T19:08:59.741Z,99402.95
2019-05-01T19:11:26.505Z,99402.93
2019-05-01T19:13:53.261Z,99408.97
2019-05-01T19:16:20.051Z,99407.92
2019-05-01T19:18:46.819Z,99404.15
2019-05-01T19:21:14.579Z,99409.61
2019-05-01T19:23:41.325Z,99405.20
2019-05-01T19:26:07.915Z,99405.45
2019-05-01T19:28:34.685Z,99405.58
2019-05-01T19:31:01.467Z,99407.88
2019-05-01T19:33:28.580Z,99404.59
2019-05-01T19:35:55.271Z,99410.42
2019-05-01T19:38:22.341Z,99412.58
2019-05-01T19:40:49.115Z,99412.05
2019-05-01T19:43:15.886Z,99411.41
2019-05-01T19:45:42.697Z,99411.89
2019-05-01T19:48:09.572Z,99413.38
2019-05-01T19:50:39.871Z,99411.19
2019-05-01T19:53:05.089Z,99412.78
2019-05-01T19:55:31.870Z,99404.58
2019-05-01T19:57:59.124Z,99413.51
2019-05-01T20:00:58.226Z,99411.58
2019-05-01T20:03:24.960Z,99411.34
2019-05-01T20:05:51.861Z,99417.34
2019-05-01T20:08:18.521Z,99421.97
2019-05-01T20:10:45.250Z,99418.30
2019-05-01T20:13:13.300Z,99415.86
2019-05-01T20:15:40.239Z,99417.57
2019-05-01T20:18:06.897Z,99416.73
2019-05-01T20:20:33.847Z,99415.48
2019-05-01T20:23:00.499Z,99417.20
2019-05-01T20:25:27.193Z,99415.64
2019-05-01T20:27:53.957Z,99410.59
2019-05-01T20:30:20.848Z,99413.19
2019-05-01T20:32:47.614Z,99412.82
2019-05-01T20:35:14.279Z,99409.78
2019-05-01T20:37:40.971Z,99408.09
2019-05-01T20:40:11.137Z,99409.52
2019-05-01T20:42:36.618Z,99410.59
2019-05-01T20:45:05.341Z,99407.61
2019-05-01T20:47:35.228Z,99400.23
2019-05-01T20:50:00.700Z,99392.58
2019-05-01T20:52:27.368Z,99395.88
2019-05-01T20:54:54.132Z,99393.30
2019-05-01T20:57:26.377Z,99389.45
2019-05-01T20:59:53.145Z,99393.36
2019-05-01T21:02:19.842Z,99393.09
2019-05-01T21:04:55.963Z,99400.28
2019-05-01T21:07:29.535Z,99392.24
2019-05-01T21:09:57.860Z,99387.34
2019-05-01T21:12:25.205Z,99390.03
2019-05-01T21:14:51.867Z,99393.89
2019-05-01T21:17:18.653Z,99391.13
2019-05-01T21:19:45.306Z,99392.18
2019-05-01T21:22:14.100Z,99392.80
2019-05-01T21:24:40.634Z,99396.25
2019-05-01T21:27:07.487Z,99388.94
2019-05-01T21:29:34.363Z,99392.45
2019-05-01T21:32:03.343Z,99392.25
2019-05-01T21:34:29.979Z,99385.50
2019-05-01T21:36:56.807Z,99378.41
2019-05-01T21:39:26.352Z,99378.78
2019-05-01T21:41:53.273Z,99378.42
2019-05-01T21:44:20.102Z,99379.27
2019-05-01T21:46:46.876Z,99377.09
2019-05-01T21:49:13.540Z,99376.42
2019-05-01T21:51:42.290Z,99376.39
2019-05-01T21:54:08.779Z,99375.23
2019-05-01T21:56:36.971Z,99370.98
2019-05-01T21:59:08.389Z,99369.90
2019-05-01T22:01:34.872Z,99367.19
2019-05-01T22:04:01.528Z,99368.41
2019-05-01T22:06:28.313Z,99359.06
2019-05-01T22:08:55.100Z,99366.05
2019-05-01T22:11:21.843Z,99359.67
2019-05-01T22:13:48.608Z,99365.00
2019-05-01T22:16:26.092Z,99362.88
2019-05-01T22:19:07.383Z,99362.08
2019-05-01T22:21:59.402Z,99363.38
2019-05-01T22:24:54.570Z,99369.85
2019-05-01T22:27:25.298Z,99360.47
2019-05-01T22:30:05.658Z,99355.75
2019-05-01T22:32:41.513Z,99358.33
2019-05-01T22:35:35.431Z,99359.17
2019-05-01T22:38:04.124Z,99359.97
2019-05-01T22:41:06.399Z,99357.63
2019-05-01T22:43:28.306Z,99351.83
2019-05-01T22:45:56.334Z,99352.42
2019-05-01T22:48:23.790Z,99357.13
2019-05-01T22:50:53.097Z,99353.34
2019-05-01T22:53:19.718Z,99346.59
2019-05-01T22:55:46.370Z,99352.75
2019-05-01T22:58:13.086Z,99349.30
2019-05-01T23:00:47.224Z,99351.59
2019-05-01T23:03:19.693Z,99347.57
2019-05-01T23:05:46.334Z,99342.80
2019-05-01T23:08:13.112Z,99339.14
2019-05-01T23:10:41.883Z,99349.21
2019-05-01T23:13:08.591Z,99337.31
2019-05-01T23:15:35.437Z,99339.27
2019-05-01T23:18:02.209Z,99338.84
2019-05-01T23:20:28.868Z,99337.88
2019-05-01T23:22:55.629Z,99336.85
2019-05-01T23:25:22.290Z,99334.31
2019-05-01T23:27:48.978Z,99322.30
2019-05-01T23:30:17.632Z,99321.61
2019-05-01T23:32:44.460Z,99327.53
2019-05-01T23:35:11.910Z,99319.16
2019-05-01T23:37:38.603Z,99322.13
2019-05-01T23:40:05.594Z,99316.89
2019-05-01T23:42:32.368Z,99316.33
2019-05-01T23:44:59.116Z,99310.43
2019-05-01T23:47:25.914Z,99306.06
2019-05-01T23:49:53.812Z,99303.89
2019-05-01T23:52:20.761Z,99304.05
2019-05-01T23:54:47.441Z,99295.25
2019-05-01T23:57:14.953Z,99297.84
2019-05-01T23:59:42.735Z,99285.14
